sensor_id;sensor_type;location;lat;lon;timestamp;P1;durP1;ratioP1;P2;durP2;ratioP2
6342;SDS011;3204;42.698;23.298;2023-08-06T00:01:47;4.13;;;3.80;;
6342;SDS011;3204;42.698;23.298;2023-08-06T00:04:13;6.20;;;3.80;;
6342;SDS011;3204;42.698;23.298;2023-08-06T00:06:38;3.97;;;3.67;;
6342;SDS011;3204;42.698;23.298;2023-08-06T00:09:03;4.03;;;3.63;;
6342;SDS011;3204;42.698;23.298;2023-08-06T00:11:29;4.65;;;3.70;;
6342;SDS011;3204;42.698;23.298;2023-08-06T00:13:54;5.00;;;3.88;;
6342;SDS011;3204;42.698;23.298;2023-08-06T00:16:20;3.60;;;3.40;;
6342;SDS011;3204;42.698;23.298;2023-08-06T00:18:45;4.07;;;3.72;;
6342;SDS011;3204;42.698;23.298;2023-08-06T00:21:11;6.63;;;4.53;;
6342;SDS011;3204;42.698;23.298;2023-08-06T00:23:37;4.40;;;4.00;;
6342;SDS011;3204;42.698;23.298;2023-08-06T00:26:03;3.72;;;3.53;;
6342;SDS011;3204;42.698;23.298;2023-08-06T00:28:28;3.78;;;3.47;;
6342;SDS011;3204;42.698;23.298;2023-08-06T00:30:54;4.22;;;3.95;;
6342;SDS011;3204;42.698;23.298;2023-08-06T00:33:20;4.10;;;3.80;;
6342;SDS011;3204;42.698;23.298;2023-08-06T00:35:49;3.80;;;3.60;;
6342;SDS011;3204;42.698;23.298;2023-08-06T00:38:14;4.35;;;3.97;;
6342;SDS011;3204;42.698;23.298;2023-08-06T00:40:40;4.00;;;3.70;;
6342;SDS011;3204;42.698;23.298;2023-08-06T00:43:05;3.90;;;3.70;;
6342;SDS011;3204;42.698;23.298;2023-08-06T00:45:33;3.83;;;3.63;;
6342;SDS011;3204;42.698;23.298;2023-08-06T00:48:00;3.83;;;3.60;;
6342;SDS011;3204;42.698;23.298;2023-08-06T00:50:26;4.45;;;4.07;;
6342;SDS011;3204;42.698;23.298;2023-08-06T00:52:51;4.28;;;3.97;;
6342;SDS011;3204;42.698;23.298;2023-08-06T00:55:17;3.90;;;3.70;;
6342;SDS011;3204;42.698;23.298;2023-08-06T00:57:43;4.60;;;4.20;;
6342;SDS011;3204;42.698;23.298;2023-08-06T01:00:09;3.67;;;3.47;;
6342;SDS011;3204;42.698;23.298;2023-08-06T01:02:35;4.13;;;3.80;;
6342;SDS011;3204;42.698;23.298;2023-08-06T01:05:00;3.80;;;3.60;;
6342;SDS011;3204;42.698;23.298;2023-08-06T01:07:30;4.13;;;3.72;;
6342;SDS011;3204;42.698;23.298;2023-08-06T01:12:51;3.97;;;3.78;;
6342;SDS011;3204;42.698;23.298;2023-08-06T01:15:52;3.80;;;3.60;;
6342;SDS011;3204;42.698;23.298;2023-08-06T01:18:15;3.90;;;3.70;;
6342;SDS011;3204;42.698;23.298;2023-08-06T01:20:41;4.05;;;3.85;;
6342;SDS011;3204;42.698;23.298;2023-08-06T01:23:06;4.45;;;4.00;;
6342;SDS011;3204;42.698;23.298;2023-08-06T01:26:09;4.10;;;3.55;;
6342;SDS011;3204;42.698;23.298;2023-08-06T01:31:10;4.57;;;4.38;;
6342;SDS011;3204;42.698;23.298;2023-08-06T01:33:43;4.45;;;4.05;;
6342;SDS011;3204;42.698;23.298;2023-08-06T01:36:12;4.63;;;4.40;;
6342;SDS011;3204;42.698;23.298;2023-08-06T01:38:40;7.50;;;4.65;;
6342;SDS011;3204;42.698;23.298;2023-08-06T01:41:05;6.18;;;4.50;;
6342;SDS011;3204;42.698;23.298;2023-08-06T01:43:31;4.82;;;4.50;;
6342;SDS011;3204;42.698;23.298;2023-08-06T01:45:56;5.15;;;4.85;;
6342;SDS011;3204;42.698;23.298;2023-08-06T01:48:21;4.75;;;4.35;;
6342;SDS011;3204;42.698;23.298;2023-08-06T01:50:47;4.35;;;4.05;;
6342;SDS011;3204;42.698;23.298;2023-08-06T01:53:13;4.20;;;4.00;;
6342;SDS011;3204;42.698;23.298;2023-08-06T01:55:38;4.63;;;4.30;;
6342;SDS011;3204;42.698;23.298;2023-08-06T01:58:03;4.38;;;4.10;;
6342;SDS011;3204;42.698;23.298;2023-08-06T02:00:29;4.45;;;4.15;;
6342;SDS011;3204;42.698;23.298;2023-08-06T02:02:55;4.50;;;4.20;;
6342;SDS011;3204;42.698;23.298;2023-08-06T02:05:20;5.35;;;3.70;;
6342;SDS011;3204;42.698;23.298;2023-08-06T02:07:46;3.95;;;3.75;;
6342;SDS011;3204;42.698;23.298;2023-08-06T02:10:11;4.65;;;4.35;;
6342;SDS011;3204;42.698;23.298;2023-08-06T02:12:36;4.32;;;4.00;;
6342;SDS011;3204;42.698;23.298;2023-08-06T02:15:02;4.28;;;4.05;;
6342;SDS011;3204;42.698;23.298;2023-08-06T02:17:28;4.55;;;4.28;;
6342;SDS011;3204;42.698;23.298;2023-08-06T02:19:54;5.10;;;4.45;;
6342;SDS011;3204;42.698;23.298;2023-08-06T02:22:19;4.40;;;4.10;;
6342;SDS011;3204;42.698;23.298;2023-08-06T02:24:45;4.97;;;4.07;;
6342;SDS011;3204;42.698;23.298;2023-08-06T02:27:10;10.23;;;5.45;;
6342;SDS011;3204;42.698;23.298;2023-08-06T02:29:36;10.88;;;7.22;;
6342;SDS011;3204;42.698;23.298;2023-08-06T02:32:01;9.63;;;6.47;;
6342;SDS011;3204;42.698;23.298;2023-08-06T02:34:27;6.20;;;5.65;;
6342;SDS011;3204;42.698;23.298;2023-08-06T02:36:53;7.40;;;5.30;;
6342;SDS011;3204;42.698;23.298;2023-08-06T02:39:18;5.25;;;4.80;;
6342;SDS011;3204;42.698;23.298;2023-08-06T02:41:44;5.22;;;4.85;;
6342;SDS011;3204;42.698;23.298;2023-08-06T02:44:09;5.32;;;4.97;;
6342;SDS011;3204;42.698;23.298;2023-08-06T02:46:35;5.30;;;4.80;;
6342;SDS011;3204;42.698;23.298;2023-08-06T02:49:00;5.25;;;4.85;;
6342;SDS011;3204;42.698;23.298;2023-08-06T02:51:26;5.40;;;4.97;;
6342;SDS011;3204;42.698;23.298;2023-08-06T02:53:51;5.05;;;4.63;;
6342;SDS011;3204;42.698;23.298;2023-08-06T02:56:17;4.78;;;4.47;;
6342;SDS011;3204;42.698;23.298;2023-08-06T02:58:42;5.13;;;4.63;;
6342;SDS011;3204;42.698;23.298;2023-08-06T03:01:08;5.35;;;4.60;;
6342;SDS011;3204;42.698;23.298;2023-08-06T03:03:33;5.50;;;4.75;;
6342;SDS011;3204;42.698;23.298;2023-08-06T03:05:59;4.75;;;4.50;;
6342;SDS011;3204;42.698;23.298;2023-08-06T03:08:25;4.95;;;4.60;;
6342;SDS011;3204;42.698;23.298;2023-08-06T03:10:51;4.55;;;4.25;;
6342;SDS011;3204;42.698;23.298;2023-08-06T03:13:17;5.07;;;4.78;;
6342;SDS011;3204;42.698;23.298;2023-08-06T03:15:43;4.78;;;4.47;;
6342;SDS011;3204;42.698;23.298;2023-08-06T03:18:09;4.35;;;4.15;;
6342;SDS011;3204;42.698;23.298;2023-08-06T03:20:34;4.50;;;4.22;;
6342;SDS011;3204;42.698;23.298;2023-08-06T03:23:00;3.95;;;3.75;;
6342;SDS011;3204;42.698;23.298;2023-08-06T03:25:25;4.00;;;3.70;;
6342;SDS011;3204;42.698;23.298;2023-08-06T03:27:51;4.38;;;4.18;;
6342;SDS011;3204;42.698;23.298;2023-08-06T03:30:16;4.32;;;4.03;;
6342;SDS011;3204;42.698;23.298;2023-08-06T03:32:41;4.13;;;3.83;;
6342;SDS011;3204;42.698;23.298;2023-08-06T03:35:07;4.30;;;3.90;;
6342;SDS011;3204;42.698;23.298;2023-08-06T03:37:33;5.93;;;4.18;;
6342;SDS011;3204;42.698;23.298;2023-08-06T03:39:58;3.75;;;3.45;;
6342;SDS011;3204;42.698;23.298;2023-08-06T03:42:24;4.07;;;3.88;;
6342;SDS011;3204;42.698;23.298;2023-08-06T03:44:49;3.88;;;3.60;;
6342;SDS011;3204;42.698;23.298;2023-08-06T03:47:15;3.53;;;3.33;;
6342;SDS011;3204;42.698;23.298;2023-08-06T03:49:40;3.10;;;3.00;;
6342;SDS011;3204;42.698;23.298;2023-08-06T03:52:06;3.70;;;3.50;;
6342;SDS011;3204;42.698;23.298;2023-08-06T03:54:31;3.30;;;3.10;;
6342;SDS011;3204;42.698;23.298;2023-08-06T03:56:57;4.88;;;4.47;;
6342;SDS011;3204;42.698;23.298;2023-08-06T03:59:22;4.20;;;4.00;;
6342;SDS011;3204;42.698;23.298;2023-08-06T04:01:48;3.97;;;3.78;;
6342;SDS011;3204;42.698;23.298;2023-08-06T04:04:13;3.80;;;3.60;;
6342;SDS011;3204;42.698;23.298;2023-08-06T04:06:39;4.00;;;3.83;;
6342;SDS011;3204;42.698;23.298;2023-08-06T04:09:04;3.92;;;3.70;;
6342;SDS011;3204;42.698;23.298;2023-08-06T04:11:29;4.35;;;4.15;;
6342;SDS011;3204;42.698;23.298;2023-08-06T04:13:55;4.00;;;3.80;;
6342;SDS011;3204;42.698;23.298;2023-08-06T04:16:21;4.38;;;3.97;;
6342;SDS011;3204;42.698;23.298;2023-08-06T04:18:46;4.20;;;4.00;;
6342;SDS011;3204;42.698;23.298;2023-08-06T04:21:12;4.57;;;4.28;;
6342;SDS011;3204;42.698;23.298;2023-08-06T04:23:37;5.15;;;4.75;;
6342;SDS011;3204;42.698;23.298;2023-08-06T04:26:03;4.88;;;4.47;;
6342;SDS011;3204;42.698;23.298;2023-08-06T04:28:29;4.50;;;4.20;;
6342;SDS011;3204;42.698;23.298;2023-08-06T04:30:55;4.90;;;4.15;;
6342;SDS011;3204;42.698;23.298;2023-08-06T04:33:21;4.60;;;4.40;;
6342;SDS011;3204;42.698;23.298;2023-08-06T04:35:46;4.30;;;4.10;;
6342;SDS011;3204;42.698;23.298;2023-08-06T04:38:11;4.57;;;4.13;;
6342;SDS011;3204;42.698;23.298;2023-08-06T04:40:37;4.50;;;4.20;;
6342;SDS011;3204;42.698;23.298;2023-08-06T04:43:02;4.63;;;4.30;;
6342;SDS011;3204;42.698;23.298;2023-08-06T04:45:28;4.57;;;4.20;;
6342;SDS011;3204;42.698;23.298;2023-08-06T04:47:54;4.82;;;4.57;;
6342;SDS011;3204;42.698;23.298;2023-08-06T04:50:19;5.30;;;5.00;;
6342;SDS011;3204;42.698;23.298;2023-08-06T04:52:45;5.68;;;5.38;;
6342;SDS011;3204;42.698;23.298;2023-08-06T04:55:11;6.30;;;5.78;;
6342;SDS011;3204;42.698;23.298;2023-08-06T04:57:36;5.95;;;5.45;;
6342;SDS011;3204;42.698;23.298;2023-08-06T05:00:02;5.53;;;5.13;;
6342;SDS011;3204;42.698;23.298;2023-08-06T05:02:29;4.72;;;4.53;;
6342;SDS011;3204;42.698;23.298;2023-08-06T05:04:57;4.10;;;3.90;;
6342;SDS011;3204;42.698;23.298;2023-08-06T05:07:22;4.50;;;4.30;;
6342;SDS011;3204;42.698;23.298;2023-08-06T05:09:48;4.00;;;3.80;;
6342;SDS011;3204;42.698;23.298;2023-08-06T05:12:13;4.35;;;4.10;;
6342;SDS011;3204;42.698;23.298;2023-08-06T05:14:39;4.20;;;4.00;;
6342;SDS011;3204;42.698;23.298;2023-08-06T05:17:04;4.25;;;4.05;;
6342;SDS011;3204;42.698;23.298;2023-08-06T05:19:30;4.85;;;4.55;;
6342;SDS011;3204;42.698;23.298;2023-08-06T05:21:55;5.00;;;4.80;;
6342;SDS011;3204;42.698;23.298;2023-08-06T05:24:21;5.72;;;5.25;;
6342;SDS011;3204;42.698;23.298;2023-08-06T05:26:46;6.18;;;5.88;;
6342;SDS011;3204;42.698;23.298;2023-08-06T05:29:12;7.57;;;6.60;;
6342;SDS011;3204;42.698;23.298;2023-08-06T05:31:38;7.88;;;7.45;;
6342;SDS011;3204;42.698;23.298;2023-08-06T05:34:03;8.52;;;7.75;;
6342;SDS011;3204;42.698;23.298;2023-08-06T05:36:29;8.68;;;8.18;;
6342;SDS011;3204;42.698;23.298;2023-08-06T05:38:54;8.95;;;8.35;;
6342;SDS011;3204;42.698;23.298;2023-08-06T05:41:20;10.00;;;9.40;;
6342;SDS011;3204;42.698;23.298;2023-08-06T05:43:45;8.18;;;7.47;;
6342;SDS011;3204;42.698;23.298;2023-08-06T05:46:10;7.00;;;6.65;;
6342;SDS011;3204;42.698;23.298;2023-08-06T05:48:36;6.22;;;5.82;;
6342;SDS011;3204;42.698;23.298;2023-08-06T05:51:01;4.85;;;4.45;;
6342;SDS011;3204;42.698;23.298;2023-08-06T05:53:27;4.22;;;4.03;;
6342;SDS011;3204;42.698;23.298;2023-08-06T05:55:52;3.65;;;3.45;;
6342;SDS011;3204;42.698;23.298;2023-08-06T05:58:18;3.40;;;3.30;;
6342;SDS011;3204;42.698;23.298;2023-08-06T06:00:45;3.95;;;3.63;;
6342;SDS011;3204;42.698;23.298;2023-08-06T06:03:10;3.53;;;3.10;;
6342;SDS011;3204;42.698;23.298;2023-08-06T06:05:39;3.05;;;2.85;;
6342;SDS011;3204;42.698;23.298;2023-08-06T06:08:04;2.83;;;2.72;;
6342;SDS011;3204;42.698;23.298;2023-08-06T06:10:29;3.00;;;2.90;;
6342;SDS011;3204;42.698;23.298;2023-08-06T06:12:55;2.45;;;2.25;;
6342;SDS011;3204;42.698;23.298;2023-08-06T06:15:21;2.45;;;2.30;;
6342;SDS011;3204;42.698;23.298;2023-08-06T06:17:46;2.63;;;2.45;;
6342;SDS011;3204;42.698;23.298;2023-08-06T06:20:11;2.47;;;2.38;;
6342;SDS011;3204;42.698;23.298;2023-08-06T06:22:37;2.40;;;2.30;;
6342;SDS011;3204;42.698;23.298;2023-08-06T06:25:03;2.35;;;2.25;;
6342;SDS011;3204;42.698;23.298;2023-08-06T06:27:28;1.92;;;1.83;;
6342;SDS011;3204;42.698;23.298;2023-08-06T06:29:54;2.22;;;2.10;;
6342;SDS011;3204;42.698;23.298;2023-08-06T06:32:20;2.90;;;2.63;;
6342;SDS011;3204;42.698;23.298;2023-08-06T06:34:46;2.50;;;2.30;;
6342;SDS011;3204;42.698;23.298;2023-08-06T06:37:11;2.38;;;2.17;;
6342;SDS011;3204;42.698;23.298;2023-08-06T06:39:37;3.25;;;2.33;;
6342;SDS011;3204;42.698;23.298;2023-08-06T06:42:02;2.20;;;2.10;;
6342;SDS011;3204;42.698;23.298;2023-08-06T06:44:28;2.60;;;2.50;;
6342;SDS011;3204;42.698;23.298;2023-08-06T06:46:53;3.90;;;2.78;;
6342;SDS011;3204;42.698;23.298;2023-08-06T06:49:19;2.65;;;2.55;;
6342;SDS011;3204;42.698;23.298;2023-08-06T06:51:45;3.00;;;2.80;;
6342;SDS011;3204;42.698;23.298;2023-08-06T06:54:10;3.25;;;2.70;;
6342;SDS011;3204;42.698;23.298;2023-08-06T06:56:36;3.38;;;3.10;;
6342;SDS011;3204;42.698;23.298;2023-08-06T06:59:02;3.25;;;3.03;;
6342;SDS011;3204;42.698;23.298;2023-08-06T07:01:27;3.53;;;3.22;;
6342;SDS011;3204;42.698;23.298;2023-08-06T07:03:53;3.35;;;2.78;;
6342;SDS011;3204;42.698;23.298;2023-08-06T07:06:18;3.10;;;3.00;;
6342;SDS011;3204;42.698;23.298;2023-08-06T07:08:44;2.80;;;2.70;;
6342;SDS011;3204;42.698;23.298;2023-08-06T07:11:10;3.17;;;2.90;;
6342;SDS011;3204;42.698;23.298;2023-08-06T07:13:36;5.18;;;2.67;;
6342;SDS011;3204;42.698;23.298;2023-08-06T07:16:01;3.30;;;3.10;;
6342;SDS011;3204;42.698;23.298;2023-08-06T07:18:27;3.50;;;3.30;;
6342;SDS011;3204;42.698;23.298;2023-08-06T07:20:53;3.28;;;3.17;;
6342;SDS011;3204;42.698;23.298;2023-08-06T07:23:25;3.40;;;3.28;;
6342;SDS011;3204;42.698;23.298;2023-08-06T07:25:51;3.47;;;3.20;;
6342;SDS011;3204;42.698;23.298;2023-08-06T07:28:17;4.07;;;3.78;;
6342;SDS011;3204;42.698;23.298;2023-08-06T07:30:43;6.43;;;3.70;;
6342;SDS011;3204;42.698;23.298;2023-08-06T07:33:10;3.13;;;3.03;;
6342;SDS011;3204;42.698;23.298;2023-08-06T07:35:36;2.85;;;2.65;;
6342;SDS011;3204;42.698;23.298;2023-08-06T07:38:01;3.22;;;3.03;;
6342;SDS011;3204;42.698;23.298;2023-08-06T07:40:27;3.53;;;2.80;;
6342;SDS011;3204;42.698;23.298;2023-08-06T07:42:53;3.05;;;2.67;;
6342;SDS011;3204;42.698;23.298;2023-08-06T07:45:19;2.65;;;2.55;;
6342;SDS011;3204;42.698;23.298;2023-08-06T07:47:44;2.90;;;2.70;;
6342;SDS011;3204;42.698;23.298;2023-08-06T07:50:10;3.63;;;2.85;;
6342;SDS011;3204;42.698;23.298;2023-08-06T07:52:36;2.92;;;2.83;;
6342;SDS011;3204;42.698;23.298;2023-08-06T07:55:01;3.30;;;3.20;;
6342;SDS011;3204;42.698;23.298;2023-08-06T07:57:30;3.30;;;3.10;;
6342;SDS011;3204;42.698;23.298;2023-08-06T07:59:59;3.17;;;3.05;;
6342;SDS011;3204;42.698;23.298;2023-08-06T08:02:25;3.00;;;2.80;;
6342;SDS011;3204;42.698;23.298;2023-08-06T08:04:51;3.25;;;2.95;;
6342;SDS011;3204;42.698;23.298;2023-08-06T08:07:16;2.83;;;2.65;;
6342;SDS011;3204;42.698;23.298;2023-08-06T08:09:42;3.08;;;2.88;;
6342;SDS011;3204;42.698;23.298;2023-08-06T08:12:07;3.53;;;3.22;;
6342;SDS011;3204;42.698;23.298;2023-08-06T08:14:32;3.38;;;3.08;;
6342;SDS011;3204;42.698;23.298;2023-08-06T08:17:02;2.83;;;2.72;;
6342;SDS011;3204;42.698;23.298;2023-08-06T08:19:28;3.47;;;2.80;;
6342;SDS011;3204;42.698;23.298;2023-08-06T08:21:54;3.58;;;2.92;;
6342;SDS011;3204;42.698;23.298;2023-08-06T08:24:19;2.92;;;2.67;;
6342;SDS011;3204;42.698;23.298;2023-08-06T08:26:46;3.28;;;2.90;;
6342;SDS011;3204;42.698;23.298;2023-08-06T08:29:11;3.05;;;2.95;;
6342;SDS011;3204;42.698;23.298;2023-08-06T08:31:37;3.05;;;2.95;;
6342;SDS011;3204;42.698;23.298;2023-08-06T08:34:04;3.75;;;3.00;;
6342;SDS011;3204;42.698;23.298;2023-08-06T08:36:30;3.00;;;2.80;;
6342;SDS011;3204;42.698;23.298;2023-08-06T08:38:56;2.95;;;2.75;;
6342;SDS011;3204;42.698;23.298;2023-08-06T08:41:21;2.95;;;2.75;;
6342;SDS011;3204;42.698;23.298;2023-08-06T08:43:48;3.00;;;2.80;;
6342;SDS011;3204;42.698;23.298;2023-08-06T08:46:16;2.78;;;2.53;;
6342;SDS011;3204;42.698;23.298;2023-08-06T08:48:43;3.42;;;2.72;;
6342;SDS011;3204;42.698;23.298;2023-08-06T08:51:09;2.75;;;2.65;;
6342;SDS011;3204;42.698;23.298;2023-08-06T08:53:36;2.85;;;2.65;;
6342;SDS011;3204;42.698;23.298;2023-08-06T08:56:04;2.72;;;2.53;;
6342;SDS011;3204;42.698;23.298;2023-08-06T08:58:30;3.00;;;2.80;;
6342;SDS011;3204;42.698;23.298;2023-08-06T09:00:56;2.63;;;2.53;;
6342;SDS011;3204;42.698;23.298;2023-08-06T09:03:22;3.10;;;2.78;;
6342;SDS011;3204;42.698;23.298;2023-08-06T09:05:49;2.90;;;2.70;;
6342;SDS011;3204;42.698;23.298;2023-08-06T09:08:17;2.83;;;2.63;;
6342;SDS011;3204;42.698;23.298;2023-08-06T09:10:44;3.10;;;3.00;;
6342;SDS011;3204;42.698;23.298;2023-08-06T09:13:13;2.80;;;2.70;;
6342;SDS011;3204;42.698;23.298;2023-08-06T09:15:38;3.05;;;2.47;;
6342;SDS011;3204;42.698;23.298;2023-08-06T09:18:10;2.78;;;2.58;;
6342;SDS011;3204;42.698;23.298;2023-08-06T09:20:37;2.75;;;2.55;;
6342;SDS011;3204;42.698;23.298;2023-08-06T09:23:08;2.72;;;2.60;;
6342;SDS011;3204;42.698;23.298;2023-08-06T09:25:36;2.42;;;2.33;;
6342;SDS011;3204;42.698;23.298;2023-08-06T09:28:04;2.47;;;2.33;;
6342;SDS011;3204;42.698;23.298;2023-08-06T09:30:33;2.33;;;2.20;;
6342;SDS011;3204;42.698;23.298;2023-08-06T09:32:59;2.67;;;2.47;;
6342;SDS011;3204;42.698;23.298;2023-08-06T09:35:28;2.70;;;2.50;;
6342;SDS011;3204;42.698;23.298;2023-08-06T09:37:55;2.55;;;2.35;;
6342;SDS011;3204;42.698;23.298;2023-08-06T09:40:27;2.22;;;2.13;;
6342;SDS011;3204;42.698;23.298;2023-08-06T09:42:55;3.20;;;2.90;;
6342;SDS011;3204;42.698;23.298;2023-08-06T09:45:21;4.25;;;2.83;;
6342;SDS011;3204;42.698;23.298;2023-08-06T09:47:47;3.20;;;2.42;;
6342;SDS011;3204;42.698;23.298;2023-08-06T09:50:17;2.20;;;2.10;;
6342;SDS011;3204;42.698;23.298;2023-08-06T09:52:43;2.15;;;1.90;;
6342;SDS011;3204;42.698;23.298;2023-08-06T09:55:13;1.88;;;1.77;;
6342;SDS011;3204;42.698;23.298;2023-08-06T09:57:42;1.92;;;1.83;;
6342;SDS011;3204;42.698;23.298;2023-08-06T10:00:08;2.38;;;1.80;;
6342;SDS011;3204;42.698;23.298;2023-08-06T10:02:35;1.92;;;1.83;;
6342;SDS011;3204;42.698;23.298;2023-08-06T10:05:02;2.10;;;2.00;;
6342;SDS011;3204;42.698;23.298;2023-08-06T10:07:29;2.58;;;2.00;;
6342;SDS011;3204;42.698;23.298;2023-08-06T10:09:55;2.35;;;1.92;;
6342;SDS011;3204;42.698;23.298;2023-08-06T10:12:21;2.25;;;2.13;;
6342;SDS011;3204;42.698;23.298;2023-08-06T10:14:47;2.30;;;2.10;;
6342;SDS011;3204;42.698;23.298;2023-08-06T10:17:14;2.00;;;1.90;;
6342;SDS011;3204;42.698;23.298;2023-08-06T10:19:40;1.90;;;1.80;;
6342;SDS011;3204;42.698;23.298;2023-08-06T10:22:16;2.47;;;2.28;;
6342;SDS011;3204;42.698;23.298;2023-08-06T10:27:28;1.92;;;1.83;;
6342;SDS011;3204;42.698;23.298;2023-08-06T10:30:20;3.72;;;2.33;;
6342;SDS011;3204;42.698;23.298;2023-08-06T10:32:57;2.47;;;2.33;;
6342;SDS011;3204;42.698;23.298;2023-08-06T10:38:13;2.38;;;2.05;;
6342;SDS011;3204;42.698;23.298;2023-08-06T10:40:40;3.05;;;2.40;;
6342;SDS011;3204;42.698;23.298;2023-08-06T10:43:33;2.10;;;2.00;;
6342;SDS011;3204;42.698;23.298;2023-08-06T10:46:03;3.00;;;1.90;;
6342;SDS011;3204;42.698;23.298;2023-08-06T10:51:04;2.80;;;2.60;;
6342;SDS011;3204;42.698;23.298;2023-08-06T10:53:32;2.40;;;2.30;;
6342;SDS011;3204;42.698;23.298;2023-08-06T10:55:58;2.85;;;2.50;;
6342;SDS011;3204;42.698;23.298;2023-08-06T10:58:23;2.58;;;2.47;;
6342;SDS011;3204;42.698;23.298;2023-08-06T11:00:49;2.40;;;2.30;;
6342;SDS011;3204;42.698;23.298;2023-08-06T11:03:14;2.65;;;2.35;;
6342;SDS011;3204;42.698;23.298;2023-08-06T11:05:40;3.00;;;2.55;;
6342;SDS011;3204;42.698;23.298;2023-08-06T11:08:05;2.60;;;2.50;;
6342;SDS011;3204;42.698;23.298;2023-08-06T11:10:32;3.22;;;2.90;;
6342;SDS011;3204;42.698;23.298;2023-08-06T11:13:02;3.75;;;3.55;;
6342;SDS011;3204;42.698;23.298;2023-08-06T11:15:29;3.40;;;3.13;;
6342;SDS011;3204;42.698;23.298;2023-08-06T11:17:55;3.97;;;3.78;;
6342;SDS011;3204;42.698;23.298;2023-08-06T11:20:21;3.30;;;3.10;;
6342;SDS011;3204;42.698;23.298;2023-08-06T11:22:47;3.95;;;3.65;;
6342;SDS011;3204;42.698;23.298;2023-08-06T11:25:13;3.72;;;3.53;;
6342;SDS011;3204;42.698;23.298;2023-08-06T11:27:38;5.55;;;4.15;;
6342;SDS011;3204;42.698;23.298;2023-08-06T11:30:04;3.67;;;3.47;;
6342;SDS011;3204;42.698;23.298;2023-08-06T11:32:30;3.70;;;3.50;;
6342;SDS011;3204;42.698;23.298;2023-08-06T11:34:56;3.95;;;3.08;;
6342;SDS011;3204;42.698;23.298;2023-08-06T11:37:21;3.80;;;3.50;;
6342;SDS011;3204;42.698;23.298;2023-08-06T11:39:50;3.75;;;3.55;;
6342;SDS011;3204;42.698;23.298;2023-08-06T11:42:16;3.85;;;3.20;;
6342;SDS011;3204;42.698;23.298;2023-08-06T11:44:42;3.75;;;3.42;;
6342;SDS011;3204;42.698;23.298;2023-08-06T11:47:14;3.70;;;3.50;;
6342;SDS011;3204;42.698;23.298;2023-08-06T11:49:48;3.53;;;3.33;;
6342;SDS011;3204;42.698;23.298;2023-08-06T11:52:21;3.60;;;3.40;;
6342;SDS011;3204;42.698;23.298;2023-08-06T11:55:03;4.60;;;4.30;;
6342;SDS011;3204;42.698;23.298;2023-08-06T11:57:35;3.50;;;3.30;;
6342;SDS011;3204;42.698;23.298;2023-08-06T12:00:04;4.03;;;3.85;;
6342;SDS011;3204;42.698;23.298;2023-08-06T12:02:31;4.53;;;3.75;;
6342;SDS011;3204;42.698;23.298;2023-08-06T12:05:03;3.83;;;3.63;;
6342;SDS011;3204;42.698;23.298;2023-08-06T12:07:30;3.83;;;3.63;;
6342;SDS011;3204;42.698;23.298;2023-08-06T12:09:57;4.38;;;4.07;;
6342;SDS011;3204;42.698;23.298;2023-08-06T12:12:23;4.30;;;4.10;;
6342;SDS011;3204;42.698;23.298;2023-08-06T12:14:49;4.55;;;4.35;;
6342;SDS011;3204;42.698;23.298;2023-08-06T12:17:14;4.22;;;4.03;;
6342;SDS011;3204;42.698;23.298;2023-08-06T12:19:39;4.60;;;4.40;;
6342;SDS011;3204;42.698;23.298;2023-08-06T12:22:05;5.10;;;4.80;;
6342;SDS011;3204;42.698;23.298;2023-08-06T12:24:30;4.95;;;4.60;;
6342;SDS011;3204;42.698;23.298;2023-08-06T12:27:00;5.05;;;4.82;;
6342;SDS011;3204;42.698;23.298;2023-08-06T12:29:27;4.93;;;4.53;;
6342;SDS011;3204;42.698;23.298;2023-08-06T12:31:53;5.35;;;4.85;;
6342;SDS011;3204;42.698;23.298;2023-08-06T12:34:18;4.60;;;4.40;;
6342;SDS011;3204;42.698;23.298;2023-08-06T12:36:44;4.75;;;4.55;;
6342;SDS011;3204;42.698;23.298;2023-08-06T12:39:09;4.60;;;4.38;;
6342;SDS011;3204;42.698;23.298;2023-08-06T12:41:35;4.57;;;4.38;;
6342;SDS011;3204;42.698;23.298;2023-08-06T12:44:01;5.15;;;4.80;;
6342;SDS011;3204;42.698;23.298;2023-08-06T12:46:26;5.18;;;4.88;;
6342;SDS011;3204;42.698;23.298;2023-08-06T12:48:51;5.07;;;4.75;;
6342;SDS011;3204;42.698;23.298;2023-08-06T12:51:17;5.93;;;5.53;;
6342;SDS011;3204;42.698;23.298;2023-08-06T12:53:42;5.90;;;5.40;;
6342;SDS011;3204;42.698;23.298;2023-08-06T12:56:08;5.75;;;5.35;;
6342;SDS011;3204;42.698;23.298;2023-08-06T12:58:33;5.03;;;4.72;;
6342;SDS011;3204;42.698;23.298;2023-08-06T13:00:58;7.80;;;5.80;;
6342;SDS011;3204;42.698;23.298;2023-08-06T13:03:24;5.30;;;5.00;;
6342;SDS011;3204;42.698;23.298;2023-08-06T13:05:50;5.20;;;4.90;;
6342;SDS011;3204;42.698;23.298;2023-08-06T13:08:15;5.40;;;5.13;;
6342;SDS011;3204;42.698;23.298;2023-08-06T13:10:42;13.95;;;5.47;;
6342;SDS011;3204;42.698;23.298;2023-08-06T13:13:08;6.50;;;5.90;;
6342;SDS011;3204;42.698;23.298;2023-08-06T13:15:35;4.82;;;4.63;;
6342;SDS011;3204;42.698;23.298;2023-08-06T13:18:00;5.63;;;5.20;;
6342;SDS011;3204;42.698;23.298;2023-08-06T13:20:26;6.32;;;4.88;;
6342;SDS011;3204;42.698;23.298;2023-08-06T13:22:52;5.30;;;5.00;;
6342;SDS011;3204;42.698;23.298;2023-08-06T13:25:18;4.97;;;4.78;;
6342;SDS011;3204;42.698;23.298;2023-08-06T13:27:44;5.65;;;5.18;;
6342;SDS011;3204;42.698;23.298;2023-08-06T13:30:11;5.38;;;4.90;;
6342;SDS011;3204;42.698;23.298;2023-08-06T13:32:36;9.75;;;6.15;;
6342;SDS011;3204;42.698;23.298;2023-08-06T13:35:05;6.63;;;4.93;;
6342;SDS011;3204;42.698;23.298;2023-08-06T13:37:30;5.47;;;5.07;;
6342;SDS011;3204;42.698;23.298;2023-08-06T13:39:56;5.55;;;5.25;;
6342;SDS011;3204;42.698;23.298;2023-08-06T13:42:21;5.50;;;4.97;;
6342;SDS011;3204;42.698;23.298;2023-08-06T13:44:47;5.45;;;5.10;;
6342;SDS011;3204;42.698;23.298;2023-08-06T13:47:12;5.25;;;5.00;;
6342;SDS011;3204;42.698;23.298;2023-08-06T13:49:38;5.32;;;5.00;;
6342;SDS011;3204;42.698;23.298;2023-08-06T13:52:03;5.35;;;5.10;;
6342;SDS011;3204;42.698;23.298;2023-08-06T13:54:29;5.18;;;4.88;;
6342;SDS011;3204;42.698;23.298;2023-08-06T13:56:54;5.32;;;4.82;;
6342;SDS011;3204;42.698;23.298;2023-08-06T13:59:20;4.75;;;4.43;;
6342;SDS011;3204;42.698;23.298;2023-08-06T14:01:45;4.18;;;3.88;;
6342;SDS011;3204;42.698;23.298;2023-08-06T14:04:12;4.50;;;4.20;;
6342;SDS011;3204;42.698;23.298;2023-08-06T14:06:38;4.68;;;4.38;;
6342;SDS011;3204;42.698;23.298;2023-08-06T14:09:03;4.93;;;4.63;;
6342;SDS011;3204;42.698;23.298;2023-08-06T14:11:29;4.55;;;4.15;;
6342;SDS011;3204;42.698;23.298;2023-08-06T14:13:55;4.05;;;3.85;;
6342;SDS011;3204;42.698;23.298;2023-08-06T14:16:20;5.57;;;4.30;;
6342;SDS011;3204;42.698;23.298;2023-08-06T14:18:45;5.10;;;4.60;;
6342;SDS011;3204;42.698;23.298;2023-08-06T14:21:11;4.43;;;4.20;;
6342;SDS011;3204;42.698;23.298;2023-08-06T14:23:36;3.92;;;3.70;;
6342;SDS011;3204;42.698;23.298;2023-08-06T14:26:02;4.32;;;4.03;;
6342;SDS011;3204;42.698;23.298;2023-08-06T14:28:27;3.65;;;3.38;;
6342;SDS011;3204;42.698;23.298;2023-08-06T14:30:53;3.53;;;3.33;;
6342;SDS011;3204;42.698;23.298;2023-08-06T14:33:18;4.03;;;3.83;;
6342;SDS011;3204;42.698;23.298;2023-08-06T14:35:44;4.65;;;4.00;;
6342;SDS011;3204;42.698;23.298;2023-08-06T14:38:09;4.13;;;3.75;;
6342;SDS011;3204;42.698;23.298;2023-08-06T14:40:35;3.90;;;3.78;;
6342;SDS011;3204;42.698;23.298;2023-08-06T14:43:03;3.75;;;3.55;;
6342;SDS011;3204;42.698;23.298;2023-08-06T14:45:30;4.30;;;3.97;;
6342;SDS011;3204;42.698;23.298;2023-08-06T14:47:56;4.20;;;3.88;;
6342;SDS011;3204;42.698;23.298;2023-08-06T14:50:22;3.67;;;3.47;;
6342;SDS011;3204;42.698;23.298;2023-08-06T14:52:47;3.95;;;3.75;;
6342;SDS011;3204;42.698;23.298;2023-08-06T14:55:25;4.30;;;3.90;;
6342;SDS011;3204;42.698;23.298;2023-08-06T14:57:52;3.75;;;3.58;;
6342;SDS011;3204;42.698;23.298;2023-08-06T15:00:18;4.55;;;3.72;;
6342;SDS011;3204;42.698;23.298;2023-08-06T15:02:44;3.80;;;3.50;;
6342;SDS011;3204;42.698;23.298;2023-08-06T15:05:10;4.05;;;3.75;;
6342;SDS011;3204;42.698;23.298;2023-08-06T15:07:35;3.75;;;3.45;;
6342;SDS011;3204;42.698;23.298;2023-08-06T15:10:02;3.40;;;3.30;;